sensor_id;sensor_type;location;lat;lon;timestamp;temperature;humidity
9913;DHT22;41380;52.548;13.344;2022-09-20T00:00:39;7.90;99.90
9913;DHT22;41380;52.548;13.344;2022-09-20T00:03:07;7.80;99.90
9913;DHT22;41380;52.548;13.344;2022-09-20T00:05:37;7.90;99.90
9913;DHT22;41380;52.548;13.344;2022-09-20T00:08:06;7.80;99.90
9913;DHT22;41380;52.548;13.344;2022-09-20T00:10:34;7.80;99.90
9913;DHT22;41380;52.548;13.344;2022-09-20T00:13:06;7.80;99.90
9913;DHT22;41380;52.548;13.344;2022-09-20T00:15:38;7.70;99.90
9913;DHT22;41380;52.548;13.344;2022-09-20T00:18:06;7.90;99.90
9913;DHT22;41380;52.548;13.344;2022-09-20T00:20:33;7.80;99.90
9913;DHT22;41380;52.548;13.344;2022-09-20T00:23:00;7.80;99.90
9913;DHT22;41380;52.548;13.344;2022-09-20T00:25:27;7.90;99.90
9913;DHT22;41380;52.548;13.344;2022-09-20T00:27:54;7.80;99.90
9913;DHT22;41380;52.548;13.344;2022-09-20T00:30:22;7.80;99.90
9913;DHT22;41380;52.548;13.344;2022-09-20T00:32:49;7.80;99.90
9913;DHT22;41380;52.548;13.344;2022-09-20T00:35:16;7.70;99.90
9913;DHT22;41380;52.548;13.344;2022-09-20T00:37:43;7.60;99.90
9913;DHT22;41380;52.548;13.344;2022-09-20T00:40:13;7.70;99.90
9913;DHT22;41380;52.548;13.344;2022-09-20T00:42:42;7.60;99.90
9913;DHT22;41380;52.548;13.344;2022-09-20T00:45:19;7.60;99.90
9913;DHT22;41380;52.548;13.344;2022-09-20T00:47:52;7.70;99.90
9913;DHT22;41380;52.548;13.344;2022-09-20T00:50:28;7.70;99.90
9913;DHT22;41380;52.548;13.344;2022-09-20T00:52:59;7.60;99.90
9913;DHT22;41380;52.548;13.344;2022-09-20T00:55:28;7.50;99.90
9913;DHT22;41380;52.548;13.344;2022-09-20T00:57:56;7.50;99.90
9913;DHT22;41380;52.548;13.344;2022-09-20T01:00:25;7.50;99.90
9913;DHT22;41380;52.548;13.344;2022-09-20T01:02:57;7.50;99.90
9913;DHT22;41380;52.548;13.344;2022-09-20T01:05:27;7.40;99.90
9913;DHT22;41380;52.548;13.344;2022-09-20T01:07:56;7.50;99.90
9913;DHT22;41380;52.548;13.344;2022-09-20T01:10:23;7.40;99.90
9913;DHT22;41380;52.548;13.344;2022-09-20T01:12:51;7.50;99.90
9913;DHT22;41380;52.548;13.344;2022-09-20T01:15:19;7.50;99.90
9913;DHT22;41380;52.548;13.344;2022-09-20T01:17:51;7.50;99.90
9913;DHT22;41380;52.548;13.344;2022-09-20T01:20:22;7.40;99.90
9913;DHT22;41380;52.548;13.344;2022-09-20T01:23:15;7.50;99.90
9913;DHT22;41380;52.548;13.344;2022-09-20T01:26:11;7.50;99.90
9913;DHT22;41380;52.548;13.344;2022-09-20T01:28:44;7.50;99.90
9913;DHT22;41380;52.548;13.344;2022-09-20T01:31:16;7.50;99.90
9913;DHT22;41380;52.548;13.344;2022-09-20T01:33:51;7.50;99.90
9913;DHT22;41380;52.548;13.344;2022-09-20T01:36:23;7.50;99.90
9913;DHT22;41380;52.548;13.344;2022-09-20T01:39:00;7.50;99.90
9913;DHT22;41380;52.548;13.344;2022-09-20T01:41:33;7.50;99.90
9913;DHT22;41380;52.548;13.344;2022-09-20T01:44:09;7.50;99.90
9913;DHT22;41380;52.548;13.344;2022-09-20T01:46:40;7.40;99.90
9913;DHT22;41380;52.548;13.344;2022-09-20T01:49:19;7.50;99.90
9913;DHT22;41380;52.548;13.344;2022-09-20T01:52:20;7.50;99.90
9913;DHT22;41380;52.548;13.344;2022-09-20T01:55:14;7.40;99.90
9913;DHT22;41380;52.548;13.344;2022-09-20T01:58:04;7.40;99.90
9913;DHT22;41380;52.548;13.344;2022-09-20T02:00:49;7.50;99.90
9913;DHT22;41380;52.548;13.344;2022-09-20T02:06:54;7.40;99.90
9913;DHT22;41380;52.548;13.344;2022-09-20T02:09:48;7.30;99.90
9913;DHT22;41380;52.548;13.344;2022-09-20T02:12:29;7.40;99.90
9913;DHT22;41380;52.548;13.344;2022-09-20T02:15:03;7.40;99.90
9913;DHT22;41380;52.548;13.344;2022-09-20T02:17:42;7.50;99.90
9913;DHT22;41380;52.548;13.344;2022-09-20T02:20:25;7.60;99.90
9913;DHT22;41380;52.548;13.344;2022-09-20T02:23:11;7.70;99.90
9913;DHT22;41380;52.548;13.344;2022-09-20T02:28:52;7.80;99.90
9913;DHT22;41380;52.548;13.344;2022-09-20T02:31:35;7.90;99.90
9913;DHT22;41380;52.548;13.344;2022-09-20T02:34:30;8.00;99.90
9913;DHT22;41380;52.548;13.344;2022-09-20T02:37:20;8.00;99.90
9913;DHT22;41380;52.548;13.344;2022-09-20T02:40:00;8.10;99.90
9913;DHT22;41380;52.548;13.344;2022-09-20T02:42:35;8.20;99.90
9913;DHT22;41380;52.548;13.344;2022-09-20T02:45:08;8.30;99.90
9913;DHT22;41380;52.548;13.344;2022-09-20T02:47:39;8.30;99.90
9913;DHT22;41380;52.548;13.344;2022-09-20T02:50:19;8.30;99.90
9913;DHT22;41380;52.548;13.344;2022-09-20T02:52:57;8.30;99.90
9913;DHT22;41380;52.548;13.344;2022-09-20T02:55:34;8.30;99.90
9913;DHT22;41380;52.548;13.344;2022-09-20T02:58:13;8.40;99.90
9913;DHT22;41380;52.548;13.344;2022-09-20T03:00:48;8.30;99.90
9913;DHT22;41380;52.548;13.344;2022-09-20T03:03:25;8.30;99.90
9913;DHT22;41380;52.548;13.344;2022-09-20T03:06:05;8.20;99.90
9913;DHT22;41380;52.548;13.344;2022-09-20T03:08:39;8.20;99.90
9913;DHT22;41380;52.548;13.344;2022-09-20T03:11:20;8.30;99.90
9913;DHT22;41380;52.548;13.344;2022-09-20T03:14:09;8.20;99.90
9913;DHT22;41380;52.548;13.344;2022-09-20T03:16:47;8.30;99.90
9913;DHT22;41380;52.548;13.344;2022-09-20T03:19:28;8.30;99.90
9913;DHT22;41380;52.548;13.344;2022-09-20T03:22:10;8.30;99.90
9913;DHT22;41380;52.548;13.344;2022-09-20T03:24:45;8.30;99.90
9913;DHT22;41380;52.548;13.344;2022-09-20T03:27:22;8.40;99.90
9913;DHT22;41380;52.548;13.344;2022-09-20T03:30:04;8.40;99.90
9913;DHT22;41380;52.548;13.344;2022-09-20T03:32:46;8.50;99.90
9913;DHT22;41380;52.548;13.344;2022-09-20T03:35:34;8.50;99.90
9913;DHT22;41380;52.548;13.344;2022-09-20T03:38:30;8.70;99.90
9913;DHT22;41380;52.548;13.344;2022-09-20T03:41:16;8.60;99.90
9913;DHT22;41380;52.548;13.344;2022-09-20T03:43:59;8.60;99.90
9913;DHT22;41380;52.548;13.344;2022-09-20T03:46:31;8.60;99.90
9913;DHT22;41380;52.548;13.344;2022-09-20T03:49:31;8.70;99.90
9913;DHT22;41380;52.548;13.344;2022-09-20T03:52:10;8.70;99.90
9913;DHT22;41380;52.548;13.344;2022-09-20T03:55:16;8.70;99.90
9913;DHT22;41380;52.548;13.344;2022-09-20T04:00:54;8.80;99.90
9913;DHT22;41380;52.548;13.344;2022-09-20T04:03:42;8.80;99.90
9913;DHT22;41380;52.548;13.344;2022-09-20T04:06:23;8.80;99.90
9913;DHT22;41380;52.548;13.344;2022-09-20T04:09:18;8.80;99.90
9913;DHT22;41380;52.548;13.344;2022-09-20T04:11:58;8.80;99.90
9913;DHT22;41380;52.548;13.344;2022-09-20T04:14:33;8.80;99.90
9913;DHT22;41380;52.548;13.344;2022-09-20T04:17:16;8.80;99.90
9913;DHT22;41380;52.548;13.344;2022-09-20T04:19:47;8.80;99.90
9913;DHT22;41380;52.548;13.344;2022-09-20T04:22:20;8.70;99.90
9913;DHT22;41380;52.548;13.344;2022-09-20T04:24:51;8.70;99.90
9913;DHT22;41380;52.548;13.344;2022-09-20T04:27:26;8.70;99.90
9913;DHT22;41380;52.548;13.344;2022-09-20T04:29:57;8.70;99.90
9913;DHT22;41380;52.548;13.344;2022-09-20T04:32:30;8.80;99.90
9913;DHT22;41380;52.548;13.344;2022-09-20T04:35:04;8.80;99.90
9913;DHT22;41380;52.548;13.344;2022-09-20T04:37:55;8.70;99.90
9913;DHT22;41380;52.548;13.344;2022-09-20T04:40:27;8.70;99.90
9913;DHT22;41380;52.548;13.344;2022-09-20T04:43:28;8.70;99.90
9913;DHT22;41380;52.548;13.344;2022-09-20T04:46:16;8.80;99.90
9913;DHT22;41380;52.548;13.344;2022-09-20T04:49:31;8.70;99.90
9913;DHT22;41380;52.548;13.344;2022-09-20T04:52:36;8.80;99.90
9913;DHT22;41380;52.548;13.344;2022-09-20T04:55:37;8.70;99.90
9913;DHT22;41380;52.548;13.344;2022-09-20T04:58:34;8.70;99.90
9913;DHT22;41380;52.548;13.344;2022-09-20T05:01:28;8.70;99.90
9913;DHT22;41380;52.548;13.344;2022-09-20T05:07:37;8.70;99.90
9913;DHT22;41380;52.548;13.344;2022-09-20T05:10:34;8.80;99.90
9913;DHT22;41380;52.548;13.344;2022-09-20T05:13:17;8.80;99.90
9913;DHT22;41380;52.548;13.344;2022-09-20T05:15:56;8.80;99.90
9913;DHT22;41380;52.548;13.344;2022-09-20T05:18:59;8.80;99.90
9913;DHT22;41380;52.548;13.344;2022-09-20T05:21:49;8.80;99.90
9913;DHT22;41380;52.548;13.344;2022-09-20T05:24:42;8.90;99.90
9913;DHT22;41380;52.548;13.344;2022-09-20T05:27:28;8.90;99.90
9913;DHT22;41380;52.548;13.344;2022-09-20T05:30:02;9.00;99.90
9913;DHT22;41380;52.548;13.344;2022-09-20T05:32:51;9.00;99.90
9913;DHT22;41380;52.548;13.344;2022-09-20T05:35:25;9.10;99.90
9913;DHT22;41380;52.548;13.344;2022-09-20T05:37:59;9.20;99.90
9913;DHT22;41380;52.548;13.344;2022-09-20T05:40:32;9.30;99.90
9913;DHT22;41380;52.548;13.344;2022-09-20T05:43:07;9.40;99.90
9913;DHT22;41380;52.548;13.344;2022-09-20T05:46:01;9.50;99.90
9913;DHT22;41380;52.548;13.344;2022-09-20T05:48:38;9.60;99.90
9913;DHT22;41380;52.548;13.344;2022-09-20T05:51:12;9.70;99.90
9913;DHT22;41380;52.548;13.344;2022-09-20T05:54:14;9.80;99.90
9913;DHT22;41380;52.548;13.344;2022-09-20T05:56:50;9.80;99.90
9913;DHT22;41380;52.548;13.344;2022-09-20T05:59:33;9.90;99.90
9913;DHT22;41380;52.548;13.344;2022-09-20T06:02:29;9.80;99.90
9913;DHT22;41380;52.548;13.344;2022-09-20T06:05:03;9.80;99.90
9913;DHT22;41380;52.548;13.344;2022-09-20T06:07:57;9.90;99.90
9913;DHT22;41380;52.548;13.344;2022-09-20T06:10:40;10.00;99.90
9913;DHT22;41380;52.548;13.344;2022-09-20T06:13:28;10.00;99.90
9913;DHT22;41380;52.548;13.344;2022-09-20T06:16:00;10.00;99.90
9913;DHT22;41380;52.548;13.344;2022-09-20T06:18:32;10.00;99.90
9913;DHT22;41380;52.548;13.344;2022-09-20T06:21:15;10.00;99.90
9913;DHT22;41380;52.548;13.344;2022-09-20T06:23:46;10.10;99.90
9913;DHT22;41380;52.548;13.344;2022-09-20T06:26:16;10.10;99.90
9913;DHT22;41380;52.548;13.344;2022-09-20T06:28:48;10.10;99.90
9913;DHT22;41380;52.548;13.344;2022-09-20T06:31:16;10.20;99.90
9913;DHT22;41380;52.548;13.344;2022-09-20T06:33:48;10.20;99.90
9913;DHT22;41380;52.548;13.344;2022-09-20T06:36:21;10.40;99.90
9913;DHT22;41380;52.548;13.344;2022-09-20T06:39:13;10.30;99.90
9913;DHT22;41380;52.548;13.344;2022-09-20T06:42:00;10.30;99.90
9913;DHT22;41380;52.548;13.344;2022-09-20T06:44:27;10.30;99.90
9913;DHT22;41380;52.548;13.344;2022-09-20T06:46:54;10.40;99.90
9913;DHT22;41380;52.548;13.344;2022-09-20T06:49:21;10.40;99.90
9913;DHT22;41380;52.548;13.344;2022-09-20T06:51:49;10.40;99.90
9913;DHT22;41380;52.548;13.344;2022-09-20T06:54:18;10.50;99.90
9913;DHT22;41380;52.548;13.344;2022-09-20T06:56:46;10.50;99.90
9913;DHT22;41380;52.548;13.344;2022-09-20T06:59:14;10.50;99.90
9913;DHT22;41380;52.548;13.344;2022-09-20T07:01:42;10.40;99.90
9913;DHT22;41380;52.548;13.344;2022-09-20T07:04:09;10.40;99.90
9913;DHT22;41380;52.548;13.344;2022-09-20T07:06:36;10.30;99.90
9913;DHT22;41380;52.548;13.344;2022-09-20T07:09:08;10.30;99.90
9913;DHT22;41380;52.548;13.344;2022-09-20T07:11:36;10.20;99.90
9913;DHT22;41380;52.548;13.344;2022-09-20T07:14:03;10.20;99.90
9913;DHT22;41380;52.548;13.344;2022-09-20T07:16:32;10.20;99.90
9913;DHT22;41380;52.548;13.344;2022-09-20T07:19:01;10.10;99.90
9913;DHT22;41380;52.548;13.344;2022-09-20T07:21:29;10.00;99.90
9913;DHT22;41380;52.548;13.344;2022-09-20T07:23:56;10.00;99.90
9913;DHT22;41380;52.548;13.344;2022-09-20T07:26:26;9.90;99.90
9913;DHT22;41380;52.548;13.344;2022-09-20T07:28:54;9.90;99.90
9913;DHT22;41380;52.548;13.344;2022-09-20T07:31:26;9.90;99.90
9913;DHT22;41380;52.548;13.344;2022-09-20T07:33:54;9.90;99.90
9913;DHT22;41380;52.548;13.344;2022-09-20T07:36:21;10.00;99.90
9913;DHT22;41380;52.548;13.344;2022-09-20T07:38:50;10.10;99.90
9913;DHT22;41380;52.548;13.344;2022-09-20T07:41:18;10.20;99.90
9913;DHT22;41380;52.548;13.344;2022-09-20T07:43:49;10.20;99.90
9913;DHT22;41380;52.548;13.344;2022-09-20T07:46:19;10.30;99.90
9913;DHT22;41380;52.548;13.344;2022-09-20T07:48:49;10.20;99.90
9913;DHT22;41380;52.548;13.344;2022-09-20T07:51:18;10.20;99.90
9913;DHT22;41380;52.548;13.344;2022-09-20T07:53:46;10.30;99.90
9913;DHT22;41380;52.548;13.344;2022-09-20T07:56:14;10.30;99.90
9913;DHT22;41380;52.548;13.344;2022-09-20T07:58:43;10.50;99.90
9913;DHT22;41380;52.548;13.344;2022-09-20T08:01:12;10.50;99.90
9913;DHT22;41380;52.548;13.344;2022-09-20T08:03:41;10.60;99.90
9913;DHT22;41380;52.548;13.344;2022-09-20T08:06:11;10.70;99.90
9913;DHT22;41380;52.548;13.344;2022-09-20T08:08:42;10.90;99.90
9913;DHT22;41380;52.548;13.344;2022-09-20T08:11:11;10.90;99.90
9913;DHT22;41380;52.548;13.344;2022-09-20T08:13:40;10.90;99.90
9913;DHT22;41380;52.548;13.344;2022-09-20T08:16:08;11.00;99.90
9913;DHT22;41380;52.548;13.344;2022-09-20T08:18:37;11.20;99.90
9913;DHT22;41380;52.548;13.344;2022-09-20T08:21:06;11.30;99.90
9913;DHT22;41380;52.548;13.344;2022-09-20T08:23:34;11.40;99.90
9913;DHT22;41380;52.548;13.344;2022-09-20T08:26:02;11.40;99.90
9913;DHT22;41380;52.548;13.344;2022-09-20T08:28:29;11.40;99.90
9913;DHT22;41380;52.548;13.344;2022-09-20T08:31:00;11.60;99.90
9913;DHT22;41380;52.548;13.344;2022-09-20T08:33:30;11.60;99.90
9913;DHT22;41380;52.548;13.344;2022-09-20T08:35:59;11.70;99.90
9913;DHT22;41380;52.548;13.344;2022-09-20T08:38:27;11.70;99.90
9913;DHT22;41380;52.548;13.344;2022-09-20T08:40:57;11.80;99.90
9913;DHT22;41380;52.548;13.344;2022-09-20T08:43:28;11.90;99.90
9913;DHT22;41380;52.548;13.344;2022-09-20T08:46:03;11.90;99.90
9913;DHT22;41380;52.548;13.344;2022-09-20T08:48:33;12.00;99.90
9913;DHT22;41380;52.548;13.344;2022-09-20T08:51:10;12.00;99.90
9913;DHT22;41380;52.548;13.344;2022-09-20T08:53:44;12.10;99.90
9913;DHT22;41380;52.548;13.344;2022-09-20T08:56:12;12.30;99.90
9913;DHT22;41380;52.548;13.344;2022-09-20T08:58:39;12.30;99.90
9913;DHT22;41380;52.548;13.344;2022-09-20T09:01:06;12.40;99.90
9913;DHT22;41380;52.548;13.344;2022-09-20T09:03:38;12.60;99.90
9913;DHT22;41380;52.548;13.344;2022-09-20T09:06:12;12.50;99.90
9913;DHT22;41380;52.548;13.344;2022-09-20T09:08:42;12.60;99.90
9913;DHT22;41380;52.548;13.344;2022-09-20T09:11:15;12.70;99.90
9913;DHT22;41380;52.548;13.344;2022-09-20T09:13:47;12.90;99.90
9913;DHT22;41380;52.548;13.344;2022-09-20T09:16:19;13.10;99.90
9913;DHT22;41380;52.548;13.344;2022-09-20T09:18:47;13.30;99.90
9913;DHT22;41380;52.548;13.344;2022-09-20T09:21:19;13.50;99.90
9913;DHT22;41380;52.548;13.344;2022-09-20T09:23:51;13.70;99.90
9913;DHT22;41380;52.548;13.344;2022-09-20T09:26:23;13.80;99.90
9913;DHT22;41380;52.548;13.344;2022-09-20T09:29:11;13.80;99.90
9913;DHT22;41380;52.548;13.344;2022-09-20T09:31:41;14.00;99.90
9913;DHT22;41380;52.548;13.344;2022-09-20T09:34:23;14.00;99.90
9913;DHT22;41380;52.548;13.344;2022-09-20T09:36:52;13.90;99.90
9913;DHT22;41380;52.548;13.344;2022-09-20T09:39:24;13.90;99.90
9913;DHT22;41380;52.548;13.344;2022-09-20T09:41:51;14.00;99.90
9913;DHT22;41380;52.548;13.344;2022-09-20T09:44:22;14.10;99.90
9913;DHT22;41380;52.548;13.344;2022-09-20T09:46:50;14.10;99.90
9913;DHT22;41380;52.548;13.344;2022-09-20T09:49:20;14.40;99.90
9913;DHT22;41380;52.548;13.344;2022-09-20T09:52:09;14.60;99.90
9913;DHT22;41380;52.548;13.344;2022-09-20T09:54:38;14.80;99.90
9913;DHT22;41380;52.548;13.344;2022-09-20T10:00:14;15.10;99.90
9913;DHT22;41380;52.548;13.344;2022-09-20T10:02:55;15.30;99.90
9913;DHT22;41380;52.548;13.344;2022-09-20T10:05:30;15.70;99.90
9913;DHT22;41380;52.548;13.344;2022-09-20T10:08:16;16.10;99.90
9913;DHT22;41380;52.548;13.344;2022-09-20T10:13:35;16.70;99.90
9913;DHT22;41380;52.548;13.344;2022-09-20T10:16:11;16.50;99.90
9913;DHT22;41380;52.548;13.344;2022-09-20T10:18:46;16.40;99.90
9913;DHT22;41380;52.548;13.344;2022-09-20T10:21:31;16.20;99.90
9913;DHT22;41380;52.548;13.344;2022-09-20T10:24:23;16.60;99.90
9913;DHT22;41380;52.548;13.344;2022-09-20T10:27:10;16.80;99.90
9913;DHT22;41380;52.548;13.344;2022-09-20T10:29:45;16.80;99.90
9913;DHT22;41380;52.548;13.344;2022-09-20T10:32:26;17.10;99.90
9913;DHT22;41380;52.548;13.344;2022-09-20T10:35:13;17.20;99.90
9913;DHT22;41380;52.548;13.344;2022-09-20T10:37:54;17.40;99.90
9913;DHT22;41380;52.548;13.344;2022-09-20T10:40:32;17.20;99.90
9913;DHT22;41380;52.548;13.344;2022-09-20T10:43:29;16.80;99.90
9913;DHT22;41380;52.548;13.344;2022-09-20T10:46:10;16.40;99.90
9913;DHT22;41380;52.548;13.344;2022-09-20T10:48:41;16.10;99.90
9913;DHT22;41380;52.548;13.344;2022-09-20T10:51:23;15.90;99.90
9913;DHT22;41380;52.548;13.344;2022-09-20T10:54:00;15.70;99.90
9913;DHT22;41380;52.548;13.344;2022-09-20T10:56:37;15.50;99.90
9913;DHT22;41380;52.548;13.344;2022-09-20T10:59:28;15.40;99.90
9913;DHT22;41380;52.548;13.344;2022-09-20T11:02:11;15.20;99.90
9913;DHT22;41380;52.548;13.344;2022-09-20T11:04:53;15.10;99.90
9913;DHT22;41380;52.548;13.344;2022-09-20T11:07:36;14.60;99.90
9913;DHT22;41380;52.548;13.344;2022-09-20T11:10:14;14.20;99.90
9913;DHT22;41380;52.548;13.344;2022-09-20T11:12:48;13.30;99.90
9913;DHT22;41380;52.548;13.344;2022-09-20T11:15:21;11.80;99.90
9913;DHT22;41380;52.548;13.344;2022-09-20T11:17:57;11.20;99.90
9913;DHT22;41380;52.548;13.344;2022-09-20T11:20:28;10.90;99.90
9913;DHT22;41380;52.548;13.344;2022-09-20T11:23:00;10.90;99.90
9913;DHT22;41380;52.548;13.344;2022-09-20T11:25:33;11.00;99.90
9913;DHT22;41380;52.548;13.344;2022-09-20T11:28:11;11.10;99.90
9913;DHT22;41380;52.548;13.344;2022-09-20T11:30:45;11.10;99.90
9913;DHT22;41380;52.548;13.344;2022-09-20T11:33:20;11.10;99.90
9913;DHT22;41380;52.548;13.344;2022-09-20T11:35:50;11.20;99.90
9913;DHT22;41380;52.548;13.344;2022-09-20T11:38:21;11.30;99.90
9913;DHT22;41380;52.548;13.344;2022-09-20T11:40:54;11.30;99.90
9913;DHT22;41380;52.548;13.344;2022-09-20T11:43:25;11.40;99.90
9913;DHT22;41380;52.548;13.344;2022-09-20T11:45:59;11.40;99.90
9913;DHT22;41380;52.548;13.344;2022-09-20T11:48:30;11.30;99.90
9913;DHT22;41380;52.548;13.344;2022-09-20T11:54:33;11.30;99.90
9913;DHT22;41380;52.548;13.344;2022-09-20T11:57:03;11.60;99.90
9913;DHT22;41380;52.548;13.344;2022-09-20T11:59:35;12.00;99.90
9913;DHT22;41380;52.548;13.344;2022-09-20T12:02:04;12.40;99.90
9913;DHT22;41380;52.548;13.344;2022-09-20T12:04:43;12.70;99.90
9913;DHT22;41380;52.548;13.344;2022-09-20T12:07:16;12.80;99.90
9913;DHT22;41380;52.548;13.344;2022-09-20T12:09:45;13.00;99.90
9913;DHT22;41380;52.548;13.344;2022-09-20T12:12:35;13.20;99.90
9913;DHT22;41380;52.548;13.344;2022-09-20T12:15:06;13.40;99.90
9913;DHT22;41380;52.548;13.344;2022-09-20T12:18:03;13.70;99.90
9913;DHT22;41380;52.548;13.344;2022-09-20T12:20:58;13.90;99.90
9913;DHT22;41380;52.548;13.344;2022-09-20T12:23:45;14.00;99.90
9913;DHT22;41380;52.548;13.344;2022-09-20T12:26:40;13.90;99.90
9913;DHT22;41380;52.548;13.344;2022-09-20T12:35:57;13.60;99.90
9913;DHT22;41380;52.548;13.344;2022-09-20T12:38:32;13.80;99.90
9913;DHT22;41380;52.548;13.344;2022-09-20T12:41:10;13.60;99.90
9913;DHT22;41380;52.548;13.344;2022-09-20T12:43:51;13.50;99.90
9913;DHT22;41380;52.548;13.344;2022-09-20T12:46:25;13.30;99.90
9913;DHT22;41380;52.548;13.344;2022-09-20T12:49:20;13.20;99.90
9913;DHT22;41380;52.548;13.344;2022-09-20T12:52:02;13.20;99.90
9913;DHT22;41380;52.548;13.344;2022-09-20T12:54:51;13.20;99.90
9913;DHT22;41380;52.548;13.344;2022-09-20T12:57:28;13.10;99.90
9913;DHT22;41380;52.548;13.344;2022-09-20T13:00:06;12.80;99.90
9913;DHT22;41380;52.548;13.344;2022-09-20T13:02:58;12.20;99.90
9913;DHT22;41380;52.548;13.344;2022-09-20T13:05:33;11.70;99.90
9913;DHT22;41380;52.548;13.344;2022-09-20T13:08:03;11.40;99.90
9913;DHT22;41380;52.548;13.344;2022-09-20T13:10:38;11.20;99.90
9913;DHT22;41380;52.548;13.344;2022-09-20T13:16:05;11.10;99.90
9913;DHT22;41380;52.548;13.344;2022-09-20T13:18:34;11.00;99.90
9913;DHT22;41380;52.548;13.344;2022-09-20T13:21:03;11.10;99.90
9913;DHT22;41380;52.548;13.344;2022-09-20T13:23:43;11.40;99.90
9913;DHT22;41380;52.548;13.344;2022-09-20T13:26:11;11.90;99.90
9913;DHT22;41380;52.548;13.344;2022-09-20T13:28:48;12.20;99.90
9913;DHT22;41380;52.548;13.344;2022-09-20T13:31:32;12.70;99.90
9913;DHT22;41380;52.548;13.344;2022-09-20T13:34:16;12.90;99.90
9913;DHT22;41380;52.548;13.344;2022-09-20T13:36:44;13.50;99.90
9913;DHT22;41380;52.548;13.344;2022-09-20T13:39:34;13.90;99.90
9913;DHT22;41380;52.548;13.344;2022-09-20T13:42:07;14.20;99.90
9913;DHT22;41380;52.548;13.344;2022-09-20T13:44:44;14.30;99.90
9913;DHT22;41380;52.548;13.344;2022-09-20T13:47:25;14.50;99.90
9913;DHT22;41380;52.548;13.344;2022-09-20T13:49:58;14.50;99.90
9913;DHT22;41380;52.548;13.344;2022-09-20T13:52:27;14.40;99.90
9913;DHT22;41380;52.548;13.344;2022-09-20T13:54:55;14.20;99.90
9913;DHT22;41380;52.548;13.344;2022-09-20T13:57:25;14.00;99.90
9913;DHT22;41380;52.548;13.344;2022-09-20T13:59:53;14.20;99.90
9913;DHT22;41380;52.548;13.344;2022-09-20T14:02:25;14.20;99.90
9913;DHT22;41380;52.548;13.344;2022-09-20T14:04:55;14.10;99.90
9913;DHT22;41380;52.548;13.344;2022-09-20T14:07:24;13.90;99.90
9913;DHT22;41380;52.548;13.344;2022-09-20T14:09:53;13.90;99.90
9913;DHT22;41380;52.548;13.344;2022-09-20T14:12:23;13.90;99.90
9913;DHT22;41380;52.548;13.344;2022-09-20T14:14:51;13.80;99.90
9913;DHT22;41380;52.548;13.344;2022-09-20T14:17:21;13.40;99.90
9913;DHT22;41380;52.548;13.344;2022-09-20T14:19:53;13.20;99.90
9913;DHT22;41380;52.548;13.344;2022-09-20T14:22:26;13.40;99.90
9913;DHT22;41380;52.548;13.344;2022-09-20T14:24:58;13.60;99.90
9913;DHT22;41380;52.548;13.344;2022-09-20T14:27:26;13.70;99.90
9913;DHT22;41380;52.548;13.344;2022-09-20T14:29:57;13.70;99.90
9913;DHT22;41380;52.548;13.344;2022-09-20T14:32:32;13.70;99.90
9913;DHT22;41380;52.548;13.344;2022-09-20T14:35:13;13.70;99.90
9913;DHT22;41380;52.548;13.344;2022-09-20T14:37:44;13.90;99.90
9913;DHT22;41380;52.548;13.344;2022-09-20T14:40:23;13.90;99.90
9913;DHT22;41380;52.548;13.344;2022-09-20T14:42:53;13.80;99.90
9913;DHT22;41380;52.548;13.344;2022-09-20T14:45:24;13.60;99.90
9913;DHT22;41380;52.548;13.344;2022-09-20T14:47:55;13.40;99.90
9913;DHT22;41380;52.548;13.344;2022-09-20T14:50:26;13.20;99.90
9913;DHT22;41380;52.548;13.344;2022-09-20T14:53:13;13.10;99.90
9913;DHT22;41380;52.548;13.344;2022-09-20T14:56:07;13.10;99.90
9913;DHT22;41380;52.548;13.344;2022-09-20T14:59:18;12.90;99.90
9913;DHT22;41380;52.548;13.344;2022-09-20T15:01:59;13.00;99.90
9913;DHT22;41380;52.548;13.344;2022-09-20T15:04:27;13.10;99.90
9913;DHT22;41380;52.548;13.344;2022-09-20T15:06:59;13.00;99.90
9913;DHT22;41380;52.548;13.344;2022-09-20T15:09:27;13.20;99.90
9913;DHT22;41380;52.548;13.344;2022-09-20T15:11:59;13.30;99.90
9913;DHT22;41380;52.548;13.344;2022-09-20T15:14:27;13.50;99.90
9913;DHT22;41380;52.548;13.344;2022-09-20T15:16:54;13.60;99.90
9913;DHT22;41380;52.548;13.344;2022-09-20T15:19:23;13.50;99.90
9913;DHT22;41380;52.548;13.344;2022-09-20T15:21:53;13.40;99.90
9913;DHT22;41380;52.548;13.344;2022-09-20T15:24:24;13.10;99.90
9913;DHT22;41380;52.548;13.344;2022-09-20T15:26:52;13.10;99.90
9913;DHT22;41380;52.548;13.344;2022-09-20T15:29:19;12.90;99.90
9913;DHT22;41380;52.548;13.344;2022-09-20T15:31:48;12.60;99.90
9913;DHT22;41380;52.548;13.344;2022-09-20T15:34:15;12.30;99.90
9913;DHT22;41380;52.548;13.344;2022-09-20T15:36:45;12.00;99.90
9913;DHT22;41380;52.548;13.344;2022-09-20T15:39:13;11.80;99.90
9913;DHT22;41380;52.548;13.344;2022-09-20T15:41:44;11.50;99.90
9913;DHT22;41380;52.548;13.344;2022-09-20T15:44:14;11.40;99.90
9913;DHT22;41380;52.548;13.344;2022-09-20T15:46:43;11.10;99.90
9913;DHT22;41380;52.548;13.344;2022-09-20T15:49:10;11.10;99.90
9913;DHT22;41380;52.548;13.344;2022-09-20T15:51:38;11.10;99.90
9913;DHT22;41380;52.548;13.344;2022-09-20T15:54:05;11.20;99.90
9913;DHT22;41380;52.548;13.344;2022-09-20T15:56:35;11.30;99.90
9913;DHT22;41380;52.548;13.344;2022-09-20T15:59:07;11.40;99.90
9913;DHT22;41380;52.548;13.344;2022-09-20T16:01:36;11.50;99.90
9913;DHT22;41380;52.548;13.344;2022-09-20T16:04:04;11.70;99.90
9913;DHT22;41380;52.548;13.344;2022-09-20T16:06:31;11.90;99.90
9913;DHT22;41380;52.548;13.344;2022-09-20T16:08:59;12.10;99.90
9913;DHT22;41380;52.548;13.344;2022-09-20T16:11:26;12.40;99.90
9913;DHT22;41380;52.548;13.344;2022-09-20T16:13:54;12.50;99.90
9913;DHT22;41380;52.548;13.344;2022-09-20T16:16:23;12.50;99.90
9913;DHT22;41380;52.548;13.344;2022-09-20T16:18:50;12.30;99.90
9913;DHT22;41380;52.548;13.344;2022-09-20T16:21:37;12.20;99.90
9913;DHT22;41380;52.548;13.344;2022-09-20T16:24:05;11.90;99.90
9913;DHT22;41380;52.548;13.344;2022-09-20T16:26:33;11.80;99.90
9913;DHT22;41380;52.548;13.344;2022-09-20T16:29:02;11.80;99.90
9913;DHT22;41380;52.548;13.344;2022-09-20T16:31:34;11.80;99.90
9913;DHT22;41380;52.548;13.344;2022-09-20T16:34:09;11.90;99.90
9913;DHT22;41380;52.548;13.344;2022-09-20T16:36:37;11.90;99.90
9913;DHT22;41380;52.548;13.344;2022-09-20T16:39:05;11.80;99.90
9913;DHT22;41380;52.548;13.344;2022-09-20T16:41:32;11.80;99.90
9913;DHT22;41380;52.548;13.344;2022-09-20T16:44:01;11.80;99.90
9913;DHT22;41380;52.548;13.344;2022-09-20T16:46:29;11.70;99.90
9913;DHT22;41380;52.548;13.344;2022-09-20T16:48:58;11.70;99.90
9913;DHT22;41380;52.548;13.344;2022-09-20T16:51:30;11.60;99.90
9913;DHT22;41380;52.548;13.344;2022-09-20T16:54:00;11.70;99.90
9913;DHT22;41380;52.548;13.344;2022-09-20T16:56:29;11.60;99.90
9913;DHT22;41380;52.548;13.344;2022-09-20T16:58:58;11.70;99.90
9913;DHT22;41380;52.548;13.344;2022-09-20T17:01:25;11.70;99.90